sensor_id;sensor_type;location;lat;lon;timestamp;temperature;humidity
2653;DHT22;1336;48.692;9.144;2024-03-22T06:00:15;9.80;97.20
2653;DHT22;1336;48.692;9.144;2024-03-22T06:01:06;9.80;97.20
2653;DHT22;1336;48.692;9.144;2024-03-22T06:01:57;9.80;97.20
2653;DHT22;1336;48.692;9.144;2024-03-22T06:02:48;9.80;97.20
2653;DHT22;1336;48.692;9.144;2024-03-22T06:03:39;9.80;97.20
2653;DHT22;1336;48.692;9.144;2024-03-22T06:04:29;9.80;97.20
2653;DHT22;1336;48.692;9.144;2024-03-22T06:05:21;9.80;97.20
2653;DHT22;1336;48.692;9.144;2024-03-22T06:06:12;9.90;97.20
2653;DHT22;1336;48.692;9.144;2024-03-22T06:07:03;9.90;97.20
2653;DHT22;1336;48.692;9.144;2024-03-22T06:07:54;9.90;97.20
2653;DHT22;1336;48.692;9.144;2024-03-22T06:08:46;9.90;97.20
2653;DHT22;1336;48.692;9.144;2024-03-22T06:09:42;9.90;97.20
2653;DHT22;1336;48.692;9.144;2024-03-22T06:10:36;9.90;97.20
2653;DHT22;1336;48.692;9.144;2024-03-22T06:11:27;9.90;97.20
2653;DHT22;1336;48.692;9.144;2024-03-22T06:12:18;9.90;97.20
2653;DHT22;1336;48.692;9.144;2024-03-22T06:13:09;10.00;97.20
2653;DHT22;1336;48.692;9.144;2024-03-22T06:14:00;10.00;97.20
2653;DHT22;1336;48.692;9.144;2024-03-22T06:14:51;10.00;97.20
2653;DHT22;1336;48.692;9.144;2024-03-22T06:15:44;10.10;97.20
2653;DHT22;1336;48.692;9.144;2024-03-22T06:16:38;10.10;97.20
2653;DHT22;1336;48.692;9.144;2024-03-22T06:17:29;10.10;97.20
2653;DHT22;1336;48.692;9.144;2024-03-22T06:18:20;10.10;97.20
2653;DHT22;1336;48.692;9.144;2024-03-22T06:19:11;10.20;97.20
2653;DHT22;1336;48.692;9.144;2024-03-22T06:20:02;10.20;97.20
2653;DHT22;1336;48.692;9.144;2024-03-22T06:20:55;10.20;97.20
2653;DHT22;1336;48.692;9.144;2024-03-22T06:21:45;10.30;97.20
2653;DHT22;1336;48.692;9.144;2024-03-22T06:22:37;10.30;97.20
2653;DHT22;1336;48.692;9.144;2024-03-22T06:23:28;10.30;97.20
2653;DHT22;1336;48.692;9.144;2024-03-22T06:24:19;10.30;97.20
2653;DHT22;1336;48.692;9.144;2024-03-22T06:25:10;10.40;97.20
2653;DHT22;1336;48.692;9.144;2024-03-22T06:26:02;10.40;97.20
2653;DHT22;1336;48.692;9.144;2024-03-22T06:26:52;10.40;97.20
2653;DHT22;1336;48.692;9.144;2024-03-22T06:27:43;10.40;97.20
2653;DHT22;1336;48.692;9.144;2024-03-22T06:28:34;10.50;97.20
2653;DHT22;1336;48.692;9.144;2024-03-22T06:29:25;10.50;97.20
2653;DHT22;1336;48.692;9.144;2024-03-22T06:30:16;10.60;97.20
2653;DHT22;1336;48.692;9.144;2024-03-22T06:31:08;10.70;97.20
2653;DHT22;1336;48.692;9.144;2024-03-22T06:31:59;10.70;97.20
2653;DHT22;1336;48.692;9.144;2024-03-22T06:32:50;10.70;97.20
2653;DHT22;1336;48.692;9.144;2024-03-22T06:33:42;10.70;97.20
2653;DHT22;1336;48.692;9.144;2024-03-22T06:34:32;10.80;97.20
2653;DHT22;1336;48.692;9.144;2024-03-22T06:35:23;10.80;97.20
2653;DHT22;1336;48.692;9.144;2024-03-22T06:36:14;10.90;97.20
2653;DHT22;1336;48.692;9.144;2024-03-22T06:37:04;10.90;97.20
2653;DHT22;1336;48.692;9.144;2024-03-22T06:37:56;10.90;97.20
2653;DHT22;1336;48.692;9.144;2024-03-22T06:38:47;10.90;97.20
2653;DHT22;1336;48.692;9.144;2024-03-22T06:39:38;11.00;97.20
2653;DHT22;1336;48.692;9.144;2024-03-22T06:40:28;11.00;97.20
2653;DHT22;1336;48.692;9.144;2024-03-22T06:41:19;11.10;97.20
2653;DHT22;1336;48.692;9.144;2024-03-22T06:42:11;11.20;97.20
2653;DHT22;1336;48.692;9.144;2024-03-22T06:43:02;11.20;97.20
2653;DHT22;1336;48.692;9.144;2024-03-22T06:43:52;11.30;97.20
2653;DHT22;1336;48.692;9.144;2024-03-22T06:44:43;11.40;97.20
2653;DHT22;1336;48.692;9.144;2024-03-22T06:45:35;11.40;97.20
2653;DHT22;1336;48.692;9.144;2024-03-22T06:46:27;11.50;97.20
2653;DHT22;1336;48.692;9.144;2024-03-22T06:47:18;11.60;97.20
2653;DHT22;1336;48.692;9.144;2024-03-22T06:48:11;11.60;97.20
2653;DHT22;1336;48.692;9.144;2024-03-22T06:49:02;11.70;97.20
2653;DHT22;1336;48.692;9.144;2024-03-22T06:49:53;11.80;97.20
2653;DHT22;1336;48.692;9.144;2024-03-22T06:50:44;11.80;97.20
2653;DHT22;1336;48.692;9.144;2024-03-22T06:51:35;11.90;97.20
2653;DHT22;1336;48.692;9.144;2024-03-22T06:52:27;12.00;97.20
2653;DHT22;1336;48.692;9.144;2024-03-22T06:53:17;12.00;97.20
2653;DHT22;1336;48.692;9.144;2024-03-22T06:54:08;12.10;97.20
2653;DHT22;1336;48.692;9.144;2024-03-22T06:54:59;12.20;97.20
2653;DHT22;1336;48.692;9.144;2024-03-22T06:55:49;12.20;97.20
2653;DHT22;1336;48.692;9.144;2024-03-22T06:56:41;12.30;97.20
2653;DHT22;1336;48.692;9.144;2024-03-22T06:57:32;12.30;97.20
2653;DHT22;1336;48.692;9.144;2024-03-22T06:58:24;12.40;97.20
2653;DHT22;1336;48.692;9.144;2024-03-22T06:59:15;12.50;97.20
2653;DHT22;1336;48.692;9.144;2024-03-22T07:00:08;12.50;97.20
2653;DHT22;1336;48.692;9.144;2024-03-22T07:01:00;12.60;97.20
2653;DHT22;1336;48.692;9.144;2024-03-22T07:01:52;12.60;97.20
2653;DHT22;1336;48.692;9.144;2024-03-22T07:02:43;12.70;97.20
2653;DHT22;1336;48.692;9.144;2024-03-22T07:03:35;12.80;97.20
2653;DHT22;1336;48.692;9.144;2024-03-22T07:04:26;12.80;97.20
2653;DHT22;1336;48.692;9.144;2024-03-22T07:05:16;12.90;97.20
2653;DHT22;1336;48.692;9.144;2024-03-22T07:06:07;12.90;97.20
2653;DHT22;1336;48.692;9.144;2024-03-22T07:07:00;13.00;97.20
2653;DHT22;1336;48.692;9.144;2024-03-22T07:07:50;13.10;97.20
2653;DHT22;1336;48.692;9.144;2024-03-22T07:08:44;13.10;97.20
2653;DHT22;1336;48.692;9.144;2024-03-22T07:09:34;13.20;97.20
2653;DHT22;1336;48.692;9.144;2024-03-22T07:10:26;13.20;97.20
2653;DHT22;1336;48.692;9.144;2024-03-22T07:11:18;13.30;97.20
2653;DHT22;1336;48.692;9.144;2024-03-22T07:12:09;13.30;97.20
2653;DHT22;1336;48.692;9.144;2024-03-22T07:12:59;13.40;97.20
2653;DHT22;1336;48.692;9.144;2024-03-22T07:13:51;13.40;97.20
2653;DHT22;1336;48.692;9.144;2024-03-22T07:14:42;13.50;97.20
2653;DHT22;1336;48.692;9.144;2024-03-22T07:15:33;13.50;97.20
2653;DHT22;1336;48.692;9.144;2024-03-22T07:16:23;13.60;97.20
2653;DHT22;1336;48.692;9.144;2024-03-22T07:17:16;13.60;97.20
2653;DHT22;1336;48.692;9.144;2024-03-22T07:18:07;13.70;97.20
2653;DHT22;1336;48.692;9.144;2024-03-22T07:18:58;13.80;97.20
2653;DHT22;1336;48.692;9.144;2024-03-22T07:19:49;13.80;97.20
2653;DHT22;1336;48.692;9.144;2024-03-22T07:20:41;13.80;97.20
2653;DHT22;1336;48.692;9.144;2024-03-22T07:21:32;13.90;97.20
2653;DHT22;1336;48.692;9.144;2024-03-22T07:22:23;13.90;97.20
2653;DHT22;1336;48.692;9.144;2024-03-22T07:23:13;13.90;97.20
2653;DHT22;1336;48.692;9.144;2024-03-22T07:24:05;13.90;97.20
2653;DHT22;1336;48.692;9.144;2024-03-22T07:24:56;14.00;97.20
2653;DHT22;1336;48.692;9.144;2024-03-22T07:25:47;14.00;97.20
2653;DHT22;1336;48.692;9.144;2024-03-22T07:26:39;14.00;97.20
2653;DHT22;1336;48.692;9.144;2024-03-22T07:27:30;14.10;97.20
2653;DHT22;1336;48.692;9.144;2024-03-22T07:28:21;14.10;97.20
2653;DHT22;1336;48.692;9.144;2024-03-22T07:29:12;14.10;97.20
2653;DHT22;1336;48.692;9.144;2024-03-22T07:30:04;14.10;97.20
2653;DHT22;1336;48.692;9.144;2024-03-22T07:30:56;14.20;97.20
2653;DHT22;1336;48.692;9.144;2024-03-22T07:31:47;14.20;97.20
2653;DHT22;1336;48.692;9.144;2024-03-22T07:32:39;14.20;97.20
2653;DHT22;1336;48.692;9.144;2024-03-22T07:33:31;14.20;97.20
2653;DHT22;1336;48.692;9.144;2024-03-22T07:34:23;14.30;97.20
2653;DHT22;1336;48.692;9.144;2024-03-22T07:35:14;14.30;97.20
2653;DHT22;1336;48.692;9.144;2024-03-22T07:36:05;14.30;97.20
2653;DHT22;1336;48.692;9.144;2024-03-22T07:36:56;14.30;97.20
2653;DHT22;1336;48.692;9.144;2024-03-22T07:37:47;14.40;97.20
2653;DHT22;1336;48.692;9.144;2024-03-22T07:38:38;14.40;97.20
2653;DHT22;1336;48.692;9.144;2024-03-22T07:39:29;14.40;97.20
2653;DHT22;1336;48.692;9.144;2024-03-22T07:40:20;14.40;97.20
2653;DHT22;1336;48.692;9.144;2024-03-22T07:41:11;14.40;97.20
2653;DHT22;1336;48.692;9.144;2024-03-22T07:42:01;14.50;97.20
2653;DHT22;1336;48.692;9.144;2024-03-22T07:42:54;14.50;97.20
2653;DHT22;1336;48.692;9.144;2024-03-22T07:43:44;14.50;97.20
2653;DHT22;1336;48.692;9.144;2024-03-22T07:44:35;14.60;97.20
2653;DHT22;1336;48.692;9.144;2024-03-22T07:45:26;14.60;97.20
2653;DHT22;1336;48.692;9.144;2024-03-22T07:46:18;14.60;97.20
2653;DHT22;1336;48.692;9.144;2024-03-22T07:47:09;14.60;97.20
2653;DHT22;1336;48.692;9.144;2024-03-22T07:48:01;14.60;97.20
2653;DHT22;1336;48.692;9.144;2024-03-22T07:48:52;14.70;97.20
2653;DHT22;1336;48.692;9.144;2024-03-22T07:49:44;14.70;97.20
2653;DHT22;1336;48.692;9.144;2024-03-22T07:50:34;14.70;97.20
2653;DHT22;1336;48.692;9.144;2024-03-22T07:51:25;14.70;97.20
2653;DHT22;1336;48.692;9.144;2024-03-22T07:52:16;14.80;97.20
2653;DHT22;1336;48.692;9.144;2024-03-22T07:53:08;14.80;97.20
2653;DHT22;1336;48.692;9.144;2024-03-22T07:53:59;14.80;97.20
2653;DHT22;1336;48.692;9.144;2024-03-22T07:54:51;14.80;97.20
2653;DHT22;1336;48.692;9.144;2024-03-22T07:55:42;14.90;97.20
2653;DHT22;1336;48.692;9.144;2024-03-22T07:56:33;14.90;97.20
2653;DHT22;1336;48.692;9.144;2024-03-22T07:57:27;14.90;97.20
2653;DHT22;1336;48.692;9.144;2024-03-22T07:58:18;14.90;97.20
2653;DHT22;1336;48.692;9.144;2024-03-22T07:59:09;15.00;97.20
2653;DHT22;1336;48.692;9.144;2024-03-22T08:00:00;15.00;97.20
2653;DHT22;1336;48.692;9.144;2024-03-22T08:00:52;15.00;97.20
2653;DHT22;1336;48.692;9.144;2024-03-22T08:01:44;15.00;97.20
2653;DHT22;1336;48.692;9.144;2024-03-22T08:02:35;15.10;97.20
2653;DHT22;1336;48.692;9.144;2024-03-22T08:03:27;15.10;97.20
2653;DHT22;1336;48.692;9.144;2024-03-22T08:04:18;15.10;97.20
2653;DHT22;1336;48.692;9.144;2024-03-22T08:05:11;15.20;97.20
2653;DHT22;1336;48.692;9.144;2024-03-22T08:06:03;15.20;97.20
2653;DHT22;1336;48.692;9.144;2024-03-22T08:06:54;15.20;97.20
2653;DHT22;1336;48.692;9.144;2024-03-22T08:07:45;15.20;97.20
2653;DHT22;1336;48.692;9.144;2024-03-22T08:08:36;15.20;97.20
2653;DHT22;1336;48.692;9.144;2024-03-22T08:09:28;15.20;97.20
2653;DHT22;1336;48.692;9.144;2024-03-22T08:10:23;15.30;97.20
2653;DHT22;1336;48.692;9.144;2024-03-22T08:11:14;15.30;97.20
2653;DHT22;1336;48.692;9.144;2024-03-22T08:12:07;15.30;97.20
2653;DHT22;1336;48.692;9.144;2024-03-22T08:12:58;15.30;97.20
2653;DHT22;1336;48.692;9.144;2024-03-22T08:13:49;15.30;97.20
2653;DHT22;1336;48.692;9.144;2024-03-22T08:14:40;15.40;97.20
2653;DHT22;1336;48.692;9.144;2024-03-22T08:15:31;15.40;97.20
2653;DHT22;1336;48.692;9.144;2024-03-22T08:16:24;15.50;97.20
2653;DHT22;1336;48.692;9.144;2024-03-22T08:17:16;15.50;97.20
2653;DHT22;1336;48.692;9.144;2024-03-22T08:18:08;15.50;97.20
2653;DHT22;1336;48.692;9.144;2024-03-22T08:19:00;15.60;97.20
2653;DHT22;1336;48.692;9.144;2024-03-22T08:19:51;15.60;97.20
2653;DHT22;1336;48.692;9.144;2024-03-22T08:20:43;15.60;97.20
2653;DHT22;1336;48.692;9.144;2024-03-22T08:21:34;15.70;97.20
2653;DHT22;1336;48.692;9.144;2024-03-22T08:22:27;15.70;97.20
2653;DHT22;1336;48.692;9.144;2024-03-22T08:23:18;15.80;97.20
2653;DHT22;1336;48.692;9.144;2024-03-22T08:24:10;15.80;97.20
2653;DHT22;1336;48.692;9.144;2024-03-22T08:25:02;15.90;97.20
2653;DHT22;1336;48.692;9.144;2024-03-22T08:25:54;15.90;97.20
2653;DHT22;1336;48.692;9.144;2024-03-22T08:26:45;16.00;97.20
2653;DHT22;1336;48.692;9.144;2024-03-22T08:27:37;16.00;97.20
2653;DHT22;1336;48.692;9.144;2024-03-22T08:28:28;16.10;97.20
2653;DHT22;1336;48.692;9.144;2024-03-22T08:29:19;16.10;97.20
2653;DHT22;1336;48.692;9.144;2024-03-22T08:30:11;16.20;97.20
2653;DHT22;1336;48.692;9.144;2024-03-22T08:31:03;16.20;97.20
2653;DHT22;1336;48.692;9.144;2024-03-22T08:31:55;16.30;97.20
2653;DHT22;1336;48.692;9.144;2024-03-22T08:32:46;16.30;97.20
2653;DHT22;1336;48.692;9.144;2024-03-22T08:33:36;16.40;97.20
2653;DHT22;1336;48.692;9.144;2024-03-22T08:34:28;16.40;97.20
2653;DHT22;1336;48.692;9.144;2024-03-22T08:35:20;16.50;97.20
2653;DHT22;1336;48.692;9.144;2024-03-22T08:36:11;16.60;97.20
2653;DHT22;1336;48.692;9.144;2024-03-22T08:37:02;16.70;97.20
2653;DHT22;1336;48.692;9.144;2024-03-22T08:37:54;16.70;97.20
2653;DHT22;1336;48.692;9.144;2024-03-22T08:38:45;16.80;97.20
2653;DHT22;1336;48.692;9.144;2024-03-22T08:39:36;16.90;97.20
2653;DHT22;1336;48.692;9.144;2024-03-22T08:40:27;17.00;97.20
2653;DHT22;1336;48.692;9.144;2024-03-22T08:41:18;17.10;97.20
2653;DHT22;1336;48.692;9.144;2024-03-22T08:42:09;17.10;97.20
2653;DHT22;1336;48.692;9.144;2024-03-22T08:43:01;17.20;97.20
2653;DHT22;1336;48.692;9.144;2024-03-22T08:43:52;17.30;97.20
2653;DHT22;1336;48.692;9.144;2024-03-22T08:44:42;17.40;97.20
2653;DHT22;1336;48.692;9.144;2024-03-22T08:45:33;17.50;97.20
2653;DHT22;1336;48.692;9.144;2024-03-22T08:46:24;17.50;97.20
2653;DHT22;1336;48.692;9.144;2024-03-22T08:47:17;17.60;97.20
2653;DHT22;1336;48.692;9.144;2024-03-22T08:48:08;17.70;97.20
2653;DHT22;1336;48.692;9.144;2024-03-22T08:48:58;17.80;97.20
2653;DHT22;1336;48.692;9.144;2024-03-22T08:49:50;17.80;97.20
2653;DHT22;1336;48.692;9.144;2024-03-22T08:50:42;17.90;97.20
2653;DHT22;1336;48.692;9.144;2024-03-22T08:51:33;17.90;97.20
2653;DHT22;1336;48.692;9.144;2024-03-22T08:52:24;18.00;97.20
2653;DHT22;1336;48.692;9.144;2024-03-22T08:53:15;18.10;97.20
2653;DHT22;1336;48.692;9.144;2024-03-22T08:54:05;18.10;97.20
2653;DHT22;1336;48.692;9.144;2024-03-22T08:54:57;18.20;97.20
2653;DHT22;1336;48.692;9.144;2024-03-22T08:55:48;18.20;97.20
2653;DHT22;1336;48.692;9.144;2024-03-22T08:56:39;18.30;97.20
2653;DHT22;1336;48.692;9.144;2024-03-22T08:57:30;18.30;97.20
2653;DHT22;1336;48.692;9.144;2024-03-22T08:58:21;18.30;97.20
2653;DHT22;1336;48.692;9.144;2024-03-22T08:59:12;18.40;97.20
2653;DHT22;1336;48.692;9.144;2024-03-22T09:00:03;18.40;97.20
2653;DHT22;1336;48.692;9.144;2024-03-22T09:00:54;18.40;97.20
2653;DHT22;1336;48.692;9.144;2024-03-22T09:01:46;18.50;97.20
2653;DHT22;1336;48.692;9.144;2024-03-22T09:02:38;18.50;97.20
2653;DHT22;1336;48.692;9.144;2024-03-22T09:03:29;18.50;97.20
2653;DHT22;1336;48.692;9.144;2024-03-22T09:04:21;18.50;97.20
2653;DHT22;1336;48.692;9.144;2024-03-22T09:05:13;18.40;97.20
2653;DHT22;1336;48.692;9.144;2024-03-22T09:06:05;18.40;97.20
2653;DHT22;1336;48.692;9.144;2024-03-22T09:06:56;18.40;97.20
2653;DHT22;1336;48.692;9.144;2024-03-22T09:07:48;18.40;97.20
2653;DHT22;1336;48.692;9.144;2024-03-22T09:08:40;18.40;97.20
2653;DHT22;1336;48.692;9.144;2024-03-22T09:09:32;18.50;97.20
2653;DHT22;1336;48.692;9.144;2024-03-22T09:10:23;18.50;97.20
2653;DHT22;1336;48.692;9.144;2024-03-22T09:11:14;18.50;97.20
2653;DHT22;1336;48.692;9.144;2024-03-22T09:12:06;18.50;97.20
2653;DHT22;1336;48.692;9.144;2024-03-22T09:12:58;18.60;97.20
2653;DHT22;1336;48.692;9.144;2024-03-22T09:13:51;18.60;97.20
2653;DHT22;1336;48.692;9.144;2024-03-22T09:14:42;18.60;97.20
2653;DHT22;1336;48.692;9.144;2024-03-22T09:15:33;18.60;97.20
2653;DHT22;1336;48.692;9.144;2024-03-22T09:16:24;18.60;97.20
2653;DHT22;1336;48.692;9.144;2024-03-22T09:17:15;18.60;97.20
2653;DHT22;1336;48.692;9.144;2024-03-22T09:18:06;18.60;97.20
2653;DHT22;1336;48.692;9.144;2024-03-22T09:18:57;18.60;97.20
2653;DHT22;1336;48.692;9.144;2024-03-22T09:19:48;18.70;97.20
2653;DHT22;1336;48.692;9.144;2024-03-22T09:20:40;18.70;97.20
2653;DHT22;1336;48.692;9.144;2024-03-22T09:21:32;18.70;97.20
2653;DHT22;1336;48.692;9.144;2024-03-22T09:22:22;18.70;97.20
2653;DHT22;1336;48.692;9.144;2024-03-22T09:23:13;18.70;97.20
2653;DHT22;1336;48.692;9.144;2024-03-22T09:24:04;18.70;97.20
2653;DHT22;1336;48.692;9.144;2024-03-22T09:24:56;18.70;97.20
2653;DHT22;1336;48.692;9.144;2024-03-22T09:25:47;18.80;97.20
2653;DHT22;1336;48.692;9.144;2024-03-22T09:26:37;18.80;97.20
2653;DHT22;1336;48.692;9.144;2024-03-22T09:27:28;18.80;97.20
2653;DHT22;1336;48.692;9.144;2024-03-22T09:28:19;18.80;97.20
2653;DHT22;1336;48.692;9.144;2024-03-22T09:29:12;18.80;97.20
2653;DHT22;1336;48.692;9.144;2024-03-22T09:30:04;18.80;97.20
2653;DHT22;1336;48.692;9.144;2024-03-22T09:30:55;18.80;97.20
2653;DHT22;1336;48.692;9.144;2024-03-22T09:31:47;18.70;97.20
2653;DHT22;1336;48.692;9.144;2024-03-22T09:32:37;18.70;97.20
2653;DHT22;1336;48.692;9.144;2024-03-22T09:33:28;18.70;97.20
2653;DHT22;1336;48.692;9.144;2024-03-22T09:34:19;18.70;97.20
2653;DHT22;1336;48.692;9.144;2024-03-22T09:35:11;18.70;97.20
2653;DHT22;1336;48.692;9.144;2024-03-22T09:36:06;18.70;97.20
2653;DHT22;1336;48.692;9.144;2024-03-22T09:36:58;18.70;97.20
2653;DHT22;1336;48.692;9.144;2024-03-22T09:37:48;18.60;97.20
2653;DHT22;1336;48.692;9.144;2024-03-22T09:38:41;18.60;97.20
2653;DHT22;1336;48.692;9.144;2024-03-22T09:39:31;18.50;97.20
2653;DHT22;1336;48.692;9.144;2024-03-22T09:40:24;18.50;97.20
2653;DHT22;1336;48.692;9.144;2024-03-22T09:41:15;18.50;97.20
2653;DHT22;1336;48.692;9.144;2024-03-22T09:42:06;18.40;97.20
2653;DHT22;1336;48.692;9.144;2024-03-22T09:43:01;18.30;97.20
2653;DHT22;1336;48.692;9.144;2024-03-22T09:43:57;18.30;97.20
2653;DHT22;1336;48.692;9.144;2024-03-22T09:44:49;18.20;97.20
2653;DHT22;1336;48.692;9.144;2024-03-22T09:45:41;18.20;97.20
2653;DHT22;1336;48.692;9.144;2024-03-22T09:46:33;18.20;97.20
2653;DHT22;1336;48.692;9.144;2024-03-22T09:47:25;18.20;97.20
2653;DHT22;1336;48.692;9.144;2024-03-22T09:48:17;18.10;97.20
2653;DHT22;1336;48.692;9.144;2024-03-22T09:49:10;18.10;97.20
2653;DHT22;1336;48.692;9.144;2024-03-22T09:50:01;18.10;97.20
2653;DHT22;1336;48.692;9.144;2024-03-22T09:50:53;18.10;97.20
2653;DHT22;1336;48.692;9.144;2024-03-22T09:51:48;18.10;97.20
2653;DHT22;1336;48.692;9.144;2024-03-22T09:52:42;18.20;97.20
2653;DHT22;1336;48.692;9.144;2024-03-22T09:53:34;18.20;97.20
2653;DHT22;1336;48.692;9.144;2024-03-22T09:54:26;18.20;97.20
2653;DHT22;1336;48.692;9.144;2024-03-22T09:55:17;18.20;97.20
2653;DHT22;1336;48.692;9.144;2024-03-22T09:56:11;18.20;97.20
2653;DHT22;1336;48.692;9.144;2024-03-22T09:57:04;18.20;97.20
2653;DHT22;1336;48.692;9.144;2024-03-22T09:57:57;18.20;97.20
2653;DHT22;1336;48.692;9.144;2024-03-22T09:58:49;18.20;97.20
2653;DHT22;1336;48.692;9.144;2024-03-22T09:59:41;18.20;97.20
2653;DHT22;1336;48.692;9.144;2024-03-22T10:00:32;18.20;97.20
2653;DHT22;1336;48.692;9.144;2024-03-22T10:01:23;18.20;97.20
2653;DHT22;1336;48.692;9.144;2024-03-22T10:02:14;18.20;97.20
2653;DHT22;1336;48.692;9.144;2024-03-22T10:03:06;18.30;97.20
2653;DHT22;1336;48.692;9.144;2024-03-22T10:03:58;18.30;97.20
2653;DHT22;1336;48.692;9.144;2024-03-22T10:04:50;18.40;97.20
2653;DHT22;1336;48.692;9.144;2024-03-22T10:05:41;18.40;97.20
2653;DHT22;1336;48.692;9.144;2024-03-22T10:06:32;18.40;97.20
2653;DHT22;1336;48.692;9.144;2024-03-22T10:07:25;18.50;97.20
2653;DHT22;1336;48.692;9.144;2024-03-22T10:08:16;18.60;97.20
2653;DHT22;1336;48.692;9.144;2024-03-22T10:09:07;18.60;97.20
2653;DHT22;1336;48.692;9.144;2024-03-22T10:09:59;18.70;97.20
2653;DHT22;1336;48.692;9.144;2024-03-22T10:10:50;18.80;97.20
2653;DHT22;1336;48.692;9.144;2024-03-22T10:11:42;18.80;97.20
2653;DHT22;1336;48.692;9.144;2024-03-22T10:12:34;18.90;97.20
2653;DHT22;1336;48.692;9.144;2024-03-22T10:13:25;19.00;97.20
2653;DHT22;1336;48.692;9.144;2024-03-22T10:14:16;19.00;97.20
2653;DHT22;1336;48.692;9.144;2024-03-22T10:15:07;19.10;97.20
2653;DHT22;1336;48.692;9.144;2024-03-22T10:15:59;19.20;97.20
2653;DHT22;1336;48.692;9.144;2024-03-22T10:16:51;19.20;97.20
2653;DHT22;1336;48.692;9.144;2024-03-22T10:17:43;19.30;97.20
2653;DHT22;1336;48.692;9.144;2024-03-22T10:18:34;19.30;97.20
2653;DHT22;1336;48.692;9.144;2024-03-22T10:19:25;19.30;97.20
2653;DHT22;1336;48.692;9.144;2024-03-22T10:20:17;19.30;97.20
2653;DHT22;1336;48.692;9.144;2024-03-22T10:21:08;19.30;97.20
2653;DHT22;1336;48.692;9.144;2024-03-22T10:22:02;19.30;97.20
2653;DHT22;1336;48.692;9.144;2024-03-22T10:22:57;19.20;97.20
2653;DHT22;1336;48.692;9.144;2024-03-22T10:23:49;19.10;97.20
2653;DHT22;1336;48.692;9.144;2024-03-22T10:24:41;19.10;97.20
2653;DHT22;1336;48.692;9.144;2024-03-22T10:25:34;19.00;97.20
2653;DHT22;1336;48.692;9.144;2024-03-22T10:26:25;19.10;97.20
2653;DHT22;1336;48.692;9.144;2024-03-22T10:27:16;19.10;97.20
2653;DHT22;1336;48.692;9.144;2024-03-22T10:28:08;19.10;97.20
2653;DHT22;1336;48.692;9.144;2024-03-22T10:28:59;19.10;97.20
2653;DHT22;1336;48.692;9.144;2024-03-22T10:29:50;19.10;97.20
2653;DHT22;1336;48.692;9.144;2024-03-22T10:30:42;19.10;97.20
2653;DHT22;1336;48.692;9.144;2024-03-22T10:31:35;19.10;97.20
2653;DHT22;1336;48.692;9.144;2024-03-22T10:32:26;19.10;97.20
2653;DHT22;1336;48.692;9.144;2024-03-22T10:33:18;19.00;97.20
2653;DHT22;1336;48.692;9.144;2024-03-22T10:34:10;19.00;97.20
2653;DHT22;1336;48.692;9.144;2024-03-22T10:35:02;19.00;97.20
2653;DHT22;1336;48.692;9.144;2024-03-22T10:35:56;19.00;97.20
2653;DHT22;1336;48.692;9.144;2024-03-22T10:36:47;19.00;97.20
2653;DHT22;1336;48.692;9.144;2024-03-22T10:37:39;19.00;97.20
2653;DHT22;1336;48.692;9.144;2024-03-22T10:38:32;19.00;97.20
2653;DHT22;1336;48.692;9.144;2024-03-22T10:39:25;19.00;97.20
2653;DHT22;1336;48.692;9.144;2024-03-22T10:40:17;19.00;97.20
2653;DHT22;1336;48.692;9.144;2024-03-22T10:41:09;19.00;97.20
2653;DHT22;1336;48.692;9.144;2024-03-22T10:42:00;19.10;97.20
2653;DHT22;1336;48.692;9.144;2024-03-22T10:42:51;19.10;97.20
2653;DHT22;1336;48.692;9.144;2024-03-22T10:43:42;19.10;97.20
2653;DHT22;1336;48.692;9.144;2024-03-22T10:44:33;19.10;97.20
2653;DHT22;1336;48.692;9.144;2024-03-22T10:45:24;19.20;97.20
2653;DHT22;1336;48.692;9.144;2024-03-22T10:46:20;19.20;97.20
2653;DHT22;1336;48.692;9.144;2024-03-22T10:47:13;19.20;97.20
2653;DHT22;1336;48.692;9.144;2024-03-22T10:48:09;19.20;97.20
2653;DHT22;1336;48.692;9.144;2024-03-22T10:49:02;19.30;97.20
2653;DHT22;1336;48.692;9.144;2024-03-22T10:50:00;19.20;97.20
2653;DHT22;1336;48.692;9.144;2024-03-22T10:50:55;19.30;97.20
2653;DHT22;1336;48.692;9.144;2024-03-22T10:51:52;19.30;97.20
2653;DHT22;1336;48.692;9.144;2024-03-22T10:52:48;19.30;97.20
2653;DHT22;1336;48.692;9.144;2024-03-22T10:53:41;19.30;97.20
2653;DHT22;1336;48.692;9.144;2024-03-22T10:54:35;19.30;97.20
2653;DHT22;1336;48.692;9.144;2024-03-22T10:55:28;19.30;97.20
2653;DHT22;1336;48.692;9.144;2024-03-22T10:56:22;19.30;97.20
2653;DHT22;1336;48.692;9.144;2024-03-22T10:57:15;19.30;97.20
2653;DHT22;1336;48.692;9.144;2024-03-22T10:58:06;19.30;97.20
2653;DHT22;1336;48.692;9.144;2024-03-22T10:59:03;19.30;97.20
2653;DHT22;1336;48.692;9.144;2024-03-22T10:59:55;19.30;97.20
2653;DHT22;1336;48.692;9.144;2024-03-22T11:00:45;19.30;97.20
2653;DHT22;1336;48.692;9.144;2024-03-22T11:01:36;19.30;97.20
2653;DHT22;1336;48.692;9.144;2024-03-22T11:02:28;19.30;97.20
2653;DHT22;1336;48.692;9.144;2024-03-22T11:03:19;19.30;97.20
2653;DHT22;1336;48.692;9.144;2024-03-22T11:04:10;19.20;97.20
2653;DHT22;1336;48.692;9.144;2024-03-22T11:05:02;19.20;97.20
2653;DHT22;1336;48.692;9.144;2024-03-22T11:05:54;19.20;97.20
2653;DHT22;1336;48.692;9.144;2024-03-22T11:06:47;19.20;97.20
2653;DHT22;1336;48.692;9.144;2024-03-22T11:07:38;19.20;97.20
2653;DHT22;1336;48.692;9.144;2024-03-22T11:08:30;19.20;97.20
2653;DHT22;1336;48.692;9.144;2024-03-22T11:09:23;19.20;97.20
2653;DHT22;1336;48.692;9.144;2024-03-22T11:10:16;19.20;97.20
2653;DHT22;1336;48.692;9.144;2024-03-22T11:11:10;19.20;97.20
2653;DHT22;1336;48.692;9.144;2024-03-22T11:12:01;19.20;97.20
2653;DHT22;1336;48.692;9.144;2024-03-22T11:12:55;19.20;97.20
2653;DHT22;1336;48.692;9.144;2024-03-22T11:13:47;19.20;97.20
2653;DHT22;1336;48.692;9.144;2024-03-22T11:14:38;19.20;97.20
2653;DHT22;1336;48.692;9.144;2024-03-22T11:15:29;19.20;97.20
2653;DHT22;1336;48.692;9.144;2024-03-22T11:16:21;19.20;97.20
2653;DHT22;1336;48.692;9.144;2024-03-22T11:17:12;19.20;97.20
2653;DHT22;1336;48.692;9.144;2024-03-22T11:18:03;19.20;97.20
2653;DHT22;1336;48.692;9.144;2024-03-22T11:18:54;19.20;97.20
2653;DHT22;1336;48.692;9.144;2024-03-22T11:19:45;19.20;97.20
2653;DHT22;1336;48.692;9.144;2024-03-22T11:20:36;19.20;97.20
2653;DHT22;1336;48.692;9.144;2024-03-22T11:21:27;19.20;97.20
2653;DHT22;1336;48.692;9.144;2024-03-22T11:22:21;19.20;97.20
2653;DHT22;1336;48.692;9.144;2024-03-22T11:23:11;19.20;97.20
2653;DHT22;1336;48.692;9.144;2024-03-22T11:24:03;19.20;97.20
2653;DHT22;1336;48.692;9.144;2024-03-22T11:24:58;19.20;97.20
2653;DHT22;1336;48.692;9.144;2024-03-22T11:25:49;19.20;97.20
2653;DHT22;1336;48.692;9.144;2024-03-22T11:26:39;19.20;97.20
2653;DHT22;1336;48.692;9.144;2024-03-22T11:27:31;19.20;97.20
2653;DHT22;1336;48.692;9.144;2024-03-22T11:28:22;19.20;97.20
2653;DHT22;1336;48.692;9.144;2024-03-22T11:29:14;19.20;97.20
2653;DHT22;1336;48.692;9.144;2024-03-22T11:30:06;19.20;97.20
2653;DHT22;1336;48.692;9.144;2024-03-22T11:30:58;19.20;97.20
2653;DHT22;1336;48.692;9.144;2024-03-22T11:31:49;19.20;97.20
2653;DHT22;1336;48.692;9.144;2024-03-22T11:32:40;19.30;97.20
2653;DHT22;1336;48.692;9.144;2024-03-22T11:33:33;19.30;97.20
2653;DHT22;1336;48.692;9.144;2024-03-22T11:34:24;19.40;97.20
2653;DHT22;1336;48.692;9.144;2024-03-22T11:35:15;19.40;97.20
2653;DHT22;1336;48.692;9.144;2024-03-22T11:36:07;19.40;97.20
2653;DHT22;1336;48.692;9.144;2024-03-22T11:36:59;19.40;97.20